createdAt,value
2023-01-13T07:50:11.684Z,7.83
2023-01-13T07:52:38.183Z,7.86
2023-01-13T07:55:05.131Z,7.93
2023-01-13T07:57:31.581Z,7.95
2023-01-13T07:59:58.113Z,8.00
2023-01-13T08:02:24.747Z,7.98
2023-01-13T08:04:51.373Z,7.95
2023-01-13T08:07:17.810Z,7.91
2023-01-13T08:09:44.244Z,7.91
2023-01-13T08:12:29.097Z,7.94
2023-01-13T08:14:55.574Z,7.99
2023-01-13T08:17:22.256Z,7.95
2023-01-13T08:19:48.757Z,7.88
2023-01-13T08:22:15.653Z,7.81
2023-01-13T08:24:42.085Z,7.74
2023-01-13T08:27:08.555Z,7.71
2023-01-13T08:29:34.977Z,7.68
2023-01-13T08:32:01.477Z,7.72
2023-01-13T08:34:27.915Z,7.67
2023-01-13T08:36:54.604Z,7.71
2023-01-13T08:39:21.019Z,7.74
2023-01-13T08:41:56.519Z,7.74
2023-01-13T08:44:24.578Z,7.75
2023-01-13T08:46:50.966Z,7.70
2023-01-13T08:49:17.768Z,7.69
2023-01-13T08:51:44.303Z,7.68
2023-01-13T08:54:11.351Z,7.73
2023-01-13T08:56:38.973Z,7.78
2023-01-13T08:59:05.943Z,7.83
2023-01-13T09:01:33.868Z,7.86
2023-01-13T09:04:00.442Z,7.92
2023-01-13T09:06:26.907Z,7.90
2023-01-13T09:08:53.388Z,7.94
2023-01-13T09:11:49.678Z,7.96
2023-01-13T09:14:23.684Z,8.04
2023-01-13T09:16:50.201Z,8.08
2023-01-13T09:19:16.622Z,8.08
2023-01-13T09:21:43.042Z,8.10
2023-01-13T09:24:09.662Z,8.13
2023-01-13T09:26:37.569Z,8.14
2023-01-13T09:29:04.427Z,8.19
2023-01-13T09:31:34.370Z,8.20
2023-01-13T09:34:25.118Z,8.27
2023-01-13T09:36:51.814Z,8.34
2023-01-13T09:39:18.516Z,8.35
2023-01-13T09:42:06.615Z,8.39
2023-01-13T09:45:05.089Z,8.41
2023-01-13T09:47:37.556Z,8.39
2023-01-13T09:50:28.046Z,8.43
2023-01-13T09:52:54.511Z,8.42
2023-01-13T09:55:32.950Z,8.41
2023-01-13T09:58:02.372Z,8.41
2023-01-13T10:00:36.397Z,8.45
2023-01-13T10:03:20.629Z,8.45
2023-01-13T10:05:57.623Z,8.45
2023-01-13T10:08:28.192Z,8.46
2023-01-13T10:10:57.636Z,8.46
2023-01-13T10:13:29.137Z,8.45
2023-01-13T10:16:03.419Z,8.45
2023-01-13T10:18:49.962Z,8.41
2023-01-13T10:21:40.452Z,8.39
2023-01-13T10:24:18.990Z,8.37
2023-01-13T10:26:58.944Z,8.33
2023-01-13T10:29:30.090Z,8.33
2023-01-13T10:31:58.141Z,8.35
2023-01-13T10:34:25.580Z,8.37
2023-01-13T10:37:08.512Z,8.39
2023-01-13T10:39:43.952Z,8.42
2023-01-13T10:42:15.947Z,8.41
2023-01-13T10:45:17.268Z,8.37
2023-01-13T10:47:43.709Z,8.38
2023-01-13T10:50:13.057Z,8.38
2023-01-13T10:52:42.979Z,8.41
2023-01-13T10:55:26.652Z,8.45
2023-01-13T10:57:53.096Z,8.41
2023-01-13T11:00:26.828Z,8.37
2023-01-13T11:03:12.659Z,8.40
2023-01-13T11:05:39.157Z,8.41
2023-01-13T11:08:05.704Z,8.47
2023-01-13T11:10:33.261Z,8.52
2023-01-13T11:13:28.079Z,8.53
2023-01-13T11:16:01.267Z,8.56
2023-01-13T11:18:51.624Z,8.59
2023-01-13T11:21:29.977Z,8.62
2023-01-13T11:24:09.689Z,8.60
2023-01-13T11:26:47.219Z,8.57
2023-01-13T11:29:31.196Z,8.58
2023-01-13T11:32:10.320Z,8.60
2023-01-13T11:34:39.775Z,8.62
2023-01-13T11:37:23.087Z,8.60
2023-01-13T11:39:56.111Z,8.67
2023-01-13T11:42:26.719Z,8.75
2023-01-13T11:45:17.411Z,8.90
2023-01-13T11:47:46.584Z,8.98
2023-01-13T11:50:16.295Z,8.95
2023-01-13T11:52:53.665Z,8.96
2023-01-13T11:55:29.335Z,8.90
2023-01-13T11:58:24.595Z,8.91
2023-01-13T12:01:23.479Z,8.93
2023-01-13T12:04:01.011Z,9.00
2023-01-13T12:06:38.206Z,9.07
2023-01-13T12:09:30.239Z,9.16
2023-01-13T12:12:22.711Z,9.20
2023-01-13T12:15:13.738Z,9.09
2023-01-13T12:18:11.477Z,8.92
2023-01-13T12:21:01.332Z,8.80
2023-01-13T12:24:10.631Z,8.71
2023-01-13T12:26:43.838Z,8.58
2023-01-13T12:29:19.540Z,8.49
2023-01-13T12:31:50.078Z,8.41
2023-01-13T12:34:24.075Z,8.34
2023-01-13T12:37:08.651Z,8.35
2023-01-13T12:39:48.273Z,8.39
2023-01-13T12:43:10.281Z,8.48
2023-01-13T12:45:36.759Z,8.54
2023-01-13T12:48:04.956Z,8.53
2023-01-13T12:50:31.292Z,8.51
2023-01-13T12:52:58.731Z,8.51
2023-01-13T12:55:25.267Z,8.52
2023-01-13T12:58:10.175Z,8.59
2023-01-13T13:00:39.341Z,8.65
2023-01-13T13:03:12.100Z,8.73
2023-01-13T13:05:44.809Z,8.78
2023-01-13T13:08:14.532Z,8.83
2023-01-13T13:10:47.767Z,8.77
2023-01-13T13:13:39.544Z,8.74
2023-01-13T13:16:36.269Z,8.76
2023-01-13T13:19:18.055Z,8.78
2023-01-13T13:22:09.792Z,8.80
2023-01-13T13:24:36.305Z,8.80
2023-01-13T13:27:19.830Z,8.79
2023-01-13T13:29:59.104Z,8.80
2023-01-13T13:32:27.673Z,8.84
2023-01-13T13:35:05.218Z,8.86
2023-01-13T13:38:12.174Z,8.86
2023-01-13T13:41:00.257Z,8.82
2023-01-13T13:43:46.355Z,8.81
2023-01-13T13:46:49.119Z,8.88
2023-01-13T13:49:18.302Z,9.01
2023-01-13T13:52:04.349Z,9.13
2023-01-13T13:54:31.675Z,9.26
2023-01-13T13:56:58.972Z,9.29
2023-01-13T13:59:27.238Z,9.25
2023-01-13T14:02:01.224Z,9.14
2023-01-13T14:04:38.953Z,8.98
2023-01-13T14:07:25.604Z,8.88
2023-01-13T14:09:54.212Z,8.85
2023-01-13T14:12:23.161Z,8.93
2023-01-13T14:14:50.651Z,9.04
2023-01-13T14:17:28.386Z,9.15
2023-01-13T14:20:17.258Z,9.34
2023-01-13T14:22:48.289Z,9.42
2023-01-13T14:25:48.102Z,9.40
2023-01-13T14:28:22.824Z,9.22
2023-01-13T14:30:50.713Z,9.07
2023-01-13T14:33:22.064Z,9.01
2023-01-13T14:36:07.774Z,8.87
2023-01-13T14:38:34.153Z,8.80
2023-01-13T14:41:12.013Z,8.75
2023-01-13T14:43:43.533Z,8.67
2023-01-13T14:46:10.216Z,8.56
2023-01-13T14:48:37.048Z,8.56
2023-01-13T14:51:05.817Z,8.52
2023-01-13T14:53:38.899Z,8.48
2023-01-13T14:56:43.686Z,8.49
2023-01-13T14:59:36.382Z,8.44
2023-01-13T15:02:25.382Z,8.44
2023-01-13T15:04:58.624Z,8.41
2023-01-13T15:07:27.931Z,8.37
2023-01-13T15:09:56.687Z,8.36
2023-01-13T15:12:33.454Z,8.34
2023-01-13T15:14:59.856Z,8.35
2023-01-13T15:17:26.381Z,8.35
2023-01-13T15:19:53.539Z,8.39
2023-01-13T15:22:19.977Z,8.39
2023-01-13T15:24:47.813Z,8.40
2023-01-13T15:27:25.185Z,8.35
2023-01-13T15:29:51.656Z,8.31
2023-01-13T15:32:20.283Z,8.28
2023-01-13T15:34:47.644Z,8.23
2023-01-13T15:37:17.076Z,8.25
2023-01-13T15:39:43.839Z,8.23
2023-01-13T15:42:31.829Z,8.14
2023-01-13T15:45:16.998Z,8.14
2023-01-13T15:47:43.880Z,8.12
2023-01-13T15:50:15.084Z,8.11
2023-01-13T15:52:41.843Z,8.11
2023-01-13T15:55:08.386Z,8.11
2023-01-13T15:57:36.209Z,8.11
2023-01-13T16:00:11.484Z,8.08
2023-01-13T16:02:37.949Z,8.12
2023-01-13T16:05:05.748Z,8.12
2023-01-13T16:07:32.276Z,8.11
2023-01-13T16:10:01.624Z,8.11
2023-01-13T16:12:28.254Z,8.10
2023-01-13T16:14:54.673Z,8.10
2023-01-13T16:17:23.892Z,8.12
2023-01-13T16:19:50.412Z,8.15
2023-01-13T16:22:17.501Z,8.16
2023-01-13T16:24:44.253Z,8.14
2023-01-13T16:27:15.881Z,8.13
2023-01-13T16:29:42.902Z,8.22
2023-01-13T16:32:09.367Z,8.22
2023-01-13T16:34:35.772Z,8.21
2023-01-13T16:37:02.346Z,8.25
2023-01-13T16:39:29.264Z,8.24
2023-01-13T16:41:56.533Z,8.26
2023-01-13T16:44:23.178Z,8.27
2023-01-13T16:46:49.803Z,8.23
2023-01-13T16:49:17.464Z,8.22
2023-01-13T16:51:43.868Z,8.13
2023-01-13T16:54:10.352Z,8.00
2023-01-13T16:56:36.844Z,7.95
2023-01-13T16:59:16.922Z,7.87
2023-01-13T17:01:44.794Z,7.81
2023-01-13T17:04:18.988Z,7.81
2023-01-13T17:06:57.049Z,7.83
2023-01-13T17:09:26.133Z,7.87
2023-01-13T17:11:52.663Z,7.86
2023-01-13T17:14:21.722Z,7.84
2023-01-13T17:16:48.276Z,7.82
2023-01-13T17:19:14.790Z,7.86
2023-01-13T17:21:41.343Z,7.87
2023-01-13T17:24:09.478Z,7.88
2023-01-13T17:26:38.060Z,7.86
2023-01-13T17:29:11.947Z,7.86
2023-01-13T17:31:38.527Z,7.85
2023-01-13T17:34:05.259Z,7.88
2023-01-13T17:36:32.209Z,7.89
2023-01-13T17:38:58.869Z,7.90
2023-01-13T17:41:26.387Z,7.90
2023-01-13T17:43:53.265Z,7.85
2023-01-13T17:46:20.533Z,7.80
2023-01-13T17:48:47.146Z,7.78
2023-01-13T17:51:15.254Z,7.79
2023-01-13T17:53:42.851Z,7.81
2023-01-13T17:56:09.936Z,7.83
2023-01-13T17:58:37.265Z,7.82
2023-01-13T18:01:11.847Z,7.84
2023-01-13T18:03:38.665Z,7.88
2023-01-13T18:06:06.576Z,7.93
2023-01-13T18:08:33.261Z,7.91
2023-01-13T18:11:00.652Z,7.93
2023-01-13T18:13:28.034Z,7.94
2023-01-13T18:16:11.420Z,7.92
2023-01-13T18:18:39.212Z,7.92
2023-01-13T18:21:24.800Z,7.96
2023-01-13T18:24:14.592Z,7.98
2023-01-13T18:26:59.620Z,7.93
2023-01-13T18:29:26.209Z,7.88
2023-01-13T18:31:52.633Z,7.85
2023-01-13T18:34:19.406Z,7.86
2023-01-13T18:36:45.835Z,7.86
2023-01-13T18:39:12.323Z,7.85
2023-01-13T18:41:57.352Z,7.80
2023-01-13T18:44:23.808Z,7.78
2023-01-13T18:46:50.379Z,7.76
2023-01-13T18:49:17.044Z,7.74
2023-01-13T18:51:43.529Z,7.71
2023-01-13T18:54:09.922Z,7.67
2023-01-13T18:56:36.519Z,7.67
2023-01-13T18:59:03.725Z,7.63
2023-01-13T19:01:30.422Z,7.60
2023-01-13T19:03:57.921Z,7.59
2023-01-13T19:06:26.675Z,7.61
2023-01-13T19:08:54.980Z,7.63
2023-01-13T19:11:22.905Z,7.63
2023-01-13T19:13:52.839Z,7.65
2023-01-13T19:16:21.371Z,7.67
2023-01-13T19:18:48.412Z,7.69
2023-01-13T19:21:15.254Z,7.69
2023-01-13T19:23:41.722Z,7.71
2023-01-13T19:26:09.637Z,7.71
2023-01-13T19:28:39.047Z,7.69
2023-01-13T19:31:08.393Z,7.64
2023-01-13T19:33:36.549Z,7.61
2023-01-13T19:36:04.531Z,7.63
2023-01-13T19:38:31.164Z,7.65
2023-01-13T19:40:59.620Z,7.65
2023-01-13T19:43:45.290Z,7.63
2023-01-13T19:46:12.643Z,7.63
2023-01-13T19:48:39.509Z,7.64
2023-01-13T19:51:06.515Z,7.68
2023-01-13T19:53:33.295Z,7.67
2023-01-13T19:55:59.695Z,7.67
2023-01-13T19:58:26.675Z,7.64
2023-01-13T20:00:54.073Z,7.62
2023-01-13T20:03:24.208Z,7.57
2023-01-13T20:05:52.189Z,7.53
2023-01-13T20:08:20.059Z,7.59
2023-01-13T20:10:46.933Z,7.57
2023-01-13T20:13:13.566Z,7.56
2023-01-13T20:15:41.058Z,7.59
2023-01-13T20:18:08.423Z,7.57
2023-01-13T20:20:35.587Z,7.54
2023-01-13T20:23:02.043Z,7.53
2023-01-13T20:25:29.431Z,7.54
2023-01-13T20:27:56.380Z,7.52
2023-01-13T20:30:23.399Z,7.52
2023-01-13T20:32:49.797Z,7.52
2023-01-13T20:35:17.051Z,7.58
2023-01-13T20:37:43.719Z,7.62
2023-01-13T20:40:15.165Z,7.61
2023-01-13T20:42:44.976Z,7.63
2023-01-13T20:45:16.894Z,7.64
2023-01-13T20:47:44.463Z,7.65
2023-01-13T20:50:11.906Z,7.64
2023-01-13T20:52:38.317Z,7.61
2023-01-13T20:55:06.544Z,7.60
2023-01-13T20:57:33.136Z,7.61
2023-01-13T20:59:59.699Z,7.64
2023-01-13T21:02:26.209Z,7.63
2023-01-13T21:04:52.663Z,7.64
2023-01-13T21:07:19.111Z,7.64
2023-01-13T21:09:45.517Z,7.70
2023-01-13T21:12:33.942Z,7.69
2023-01-13T21:15:19.919Z,7.69
2023-01-13T21:18:06.115Z,7.69
2023-01-13T21:20:34.270Z,7.68
2023-01-13T21:23:02.182Z,7.67
2023-01-13T21:25:29.256Z,7.64
2023-01-13T21:27:59.097Z,7.64
2023-01-13T21:30:25.660Z,7.63
2023-01-13T21:32:52.135Z,7.63
2023-01-13T21:35:18.562Z,7.64
2023-01-13T21:37:45.005Z,7.63
2023-01-13T21:40:13.455Z,7.60
2023-01-13T21:42:58.428Z,7.61
2023-01-13T21:45:43.623Z,7.59
2023-01-13T21:48:10.037Z,7.66
2023-01-13T21:50:38.077Z,7.65
2023-01-13T21:53:04.948Z,7.62
2023-01-13T21:55:32.670Z,7.60
2023-01-13T21:58:01.079Z,7.61
2023-01-13T22:00:30.156Z,7.65
2023-01-13T22:02:56.605Z,7.64
2023-01-13T22:05:24.369Z,7.62
2023-01-13T22:07:51.364Z,7.61
2023-01-13T22:10:20.734Z,7.61
2023-01-13T22:12:47.951Z,7.57
2023-01-13T22:15:15.814Z,7.61
2023-01-13T22:17:42.612Z,7.56
2023-01-13T22:20:10.554Z,7.59
2023-01-13T22:22:37.099Z,7.57
2023-01-13T22:25:06.900Z,7.55
2023-01-13T22:27:40.022Z,7.52
2023-01-13T22:30:08.951Z,7.51
2023-01-13T22:32:37.565Z,7.52
2023-01-13T22:35:05.973Z,7.49
2023-01-13T22:37:32.666Z,7.46
2023-01-13T22:39:59.102Z,7.47
2023-01-13T22:42:25.602Z,7.46
2023-01-13T22:44:52.185Z,7.46
2023-01-13T22:47:18.626Z,7.45
2023-01-13T22:49:47.614Z,7.48
2023-01-13T22:52:15.402Z,7.50
2023-01-13T22:54:41.872Z,7.52
2023-01-13T22:57:08.325Z,7.49
2023-01-13T22:59:34.778Z,7.45
2023-01-13T23:02:01.255Z,7.47
2023-01-13T23:04:27.667Z,7.46
2023-01-13T23:06:54.154Z,7.43
2023-01-13T23:09:20.747Z,7.40
2023-01-13T23:11:47.904Z,7.37
2023-01-13T23:14:14.467Z,7.38
2023-01-13T23:16:41.452Z,7.37
2023-01-13T23:19:08.360Z,7.39
2023-01-13T23:21:36.556Z,7.39
2023-01-13T23:24:04.754Z,7.41
2023-01-13T23:26:32.021Z,7.38
2023-01-13T23:29:04.593Z,7.36
2023-01-13T23:31:31.486Z,7.37
2023-01-13T23:33:57.968Z,7.37
2023-01-13T23:36:26.277Z,7.36
2023-01-13T23:38:53.232Z,7.30
2023-01-13T23:41:24.637Z,7.33
2023-01-13T23:43:52.950Z,7.32
2023-01-13T23:46:20.234Z,7.32
2023-01-13T23:48:46.927Z,7.27
2023-01-13T23:51:13.658Z,7.26
2023-01-13T23:53:42.654Z,7.26
2023-01-13T23:56:22.881Z,7.28
2023-01-13T23:58:49.879Z,7.30
